Time;durP1;ratioP1;P1;durP2;ratioP2;P2;SDS_P1;SDS_P2;PMS_P1;PMS_P2;Temp;Humidity;BMP_temperature;BMP_pressure;BME280_temperature;BME280_humidity;BME280_pressure;Samples;Min_cycle;Max_cycle;Signal;HPM_P1;HPM_P2
2021/04/13 00:01:25;;;;;;;2.72;1.83;;;10.80;42.70;;;;;;6258993;28;20036;-78
2021/04/13 00:04:26;;;;;;;4.07;1.70;;;10.70;42.40;;;;;;6258754;28;20029;-78
2021/04/13 00:07:30;;;;;;;4.55;1.80;;;10.80;42.70;;;;;;6259050;28;20451;-80
2021/04/13 00:10:38;;;;;;;6.50;1.77;;;10.80;42.70;;;;;;6258178;28;20384;-77
2021/04/13 00:13:40;;;;;;;4.20;1.65;;;10.80;42.70;;;;;;6251180;28;20025;-78
2021/04/13 00:16:41;;;;;;;2.90;1.80;;;10.80;42.70;;;;;;6250568;28;20056;-78
2021/04/13 00:19:49;;;;;;;4.20;1.73;;;10.80;42.90;;;;;;6233948;28;20030;-79
2021/04/13 00:22:52;;;;;;;3.47;1.60;;;10.80;43.20;;;;;;6234217;28;20033;-79
2021/04/13 00:26:00;;;;;;;1.98;1.50;;;10.80;43.20;;;;;;6234290;28;20564;-79
2021/04/13 00:29:07;;;;;;;2.38;1.73;;;10.80;43.00;;;;;;6233778;28;20120;-77
2021/04/13 00:32:10;;;;;;;2.13;1.70;;;10.80;43.20;;;;;;6233816;28;20029;-77
2021/04/13 00:35:29;;;;;;;3.05;1.70;;;10.80;43.20;;;;;;6233798;28;20036;-79
2021/04/13 00:38:33;;;;;;;3.60;1.88;;;10.80;43.10;;;;;;6233374;28;20041;-79
2021/04/13 00:41:34;;;;;;;3.00;1.70;;;10.70;43.10;;;;;;6250536;28;20036;-78
2021/04/13 00:44:49;;;;;;;2.80;1.77;;;10.70;42.90;;;;;;6234366;28;20457;-80
2021/04/13 00:47:52;;;;;;;3.38;1.80;;;10.70;42.80;;;;;;6234795;28;20041;-77
2021/04/13 00:51:00;;;;;;;4.00;1.77;;;10.70;43.30;;;;;;6234182;28;20522;-80
2021/04/13 00:54:03;;;;;;;;;;;10.60;43.00;;;;;;6234344;28;20052;-78
2021/04/13 00:57:13;;;;;;;2.70;1.42;;;10.60;42.90;;;;;;6233856;28;20279;-78
2021/04/13 01:00:48;;;;;;;3.20;2.03;;;10.50;42.60;;;;;;6251175;28;20026;-77
2021/04/13 01:03:59;;;;;;;5.32;2.10;;;10.50;42.70;;;;;;6217410;28;20034;-79
2021/04/13 01:07:12;;;;;;;2.78;1.63;;;10.40;42.40;;;;;;6230631;28;20033;-78
2021/04/13 01:10:27;;;;;;;7.45;1.85;;;10.40;42.90;;;;;;6231547;28;20045;-78
2021/04/13 01:14:00;;;;;;;7.30;2.30;;;10.40;42.70;;;;;;6258022;28;20036;-78
2021/04/13 01:17:07;;;;;;;3.90;2.05;;;10.40;42.50;;;;;;6259596;28;20025;-78
2021/04/13 01:20:33;;;;;;;3.15;1.83;;;10.40;42.30;;;;;;6259515;28;20068;-78
2021/04/13 01:23:54;;;;;;;6.68;1.88;;;10.40;42.60;;;;;;6259299;28;20025;-78
2021/04/13 01:26:57;;;;;;;2.20;1.55;;;10.40;42.70;;;;;;6258455;28;20025;-78
2021/04/13 01:30:02;;;;;;;3.03;1.90;;;10.40;42.30;;;;;;6274637;28;20083;-78
2021/04/13 01:33:11;;;;;;;2.45;1.70;;;10.40;42.40;;;;;;6258250;28;20029;-77
2021/04/13 01:36:26;;;;;;;3.53;1.90;;;10.40;42.80;;;;;;6274738;28;20381;-77
2021/04/13 01:39:32;;;;;;;4.70;1.95;;;10.40;42.60;;;;;;6258028;28;20044;-77
2021/04/13 01:42:34;;;;;;;3.03;1.83;;;10.40;42.30;;;;;;6257620;28;20029;-78
2021/04/13 01:45:36;;;;;;;3.30;2.08;;;10.30;42.80;;;;;;6274913;28;20463;-78
2021/04/13 01:48:37;;;;;;;6.47;1.92;;;10.30;43.10;;;;;;6259718;28;20048;-78
2021/04/13 01:51:39;;;;;;;6.10;2.25;;;10.30;43.10;;;;;;6261911;28;20390;-78
2021/04/13 01:54:40;;;;;;;3.78;2.38;;;10.30;43.00;;;;;;6261988;28;20036;-78
2021/04/13 01:57:43;;;;;;;2.25;1.42;;;10.30;43.10;;;;;;6261592;28;20354;-78
2021/04/13 02:00:50;;;;;;;3.97;2.40;;;10.30;43.30;;;;;;6261484;28;20348;-78
2021/04/13 02:04:03;;;;;;;4.78;1.92;;;10.30;43.10;;;;;;6261773;28;20104;-79
2021/04/13 02:07:26;;;;;;;3.20;2.08;;;10.30;43.20;;;;;;6279260;28;20087;-78
2021/04/13 02:10:45;;;;;;;3.42;2.08;;;10.30;43.40;;;;;;6261338;28;20056;-79
2021/04/13 02:13:59;;;;;;;2.65;1.77;;;10.30;43.60;;;;;;6261293;28;20125;-77
2021/04/13 02:17:12;;;;;;;4.20;2.50;;;10.30;43.70;;;;;;6261451;28;20028;-78
2021/04/13 02:20:18;;;;;;;4.70;2.55;;;10.30;43.80;;;;;;6261236;28;20333;-78
2021/04/13 02:23:29;;;;;;;3.05;2.15;;;10.30;43.70;;;;;;6261218;28;20044;-78
2021/04/13 02:26:31;;;;;;;4.45;2.08;;;10.30;43.80;;;;;;6261090;28;20144;-77
2021/04/13 02:29:45;;;;;;;4.53;2.35;;;10.30;43.80;;;;;;6260871;28;20033;-78
2021/04/13 02:32:50;;;;;;;4.80;2.45;;;10.20;44.00;;;;;;6260680;28;20170;-78
2021/04/13 02:35:51;;;;;;;5.30;2.17;;;10.30;43.90;;;;;;6277415;28;20087;-78
2021/04/13 02:38:55;;;;;;;5.00;2.30;;;10.30;44.00;;;;;;6260839;28;20021;-78
2021/04/13 02:42:00;;;;;;;4.80;2.53;;;10.30;44.20;;;;;;6244262;28;20036;-78
2021/04/13 02:45:05;;;;;;;3.90;2.45;;;10.30;44.10;;;;;;6260521;28;20024;-76
2021/04/13 02:48:17;;;;;;;3.88;2.50;;;10.30;44.10;;;;;;6260459;28;20028;-76
2021/04/13 02:51:21;;;;;;;3.40;2.10;;;10.20;44.10;;;;;;6260273;28;20043;-78
2021/04/13 02:54:25;;;;;;;3.40;2.03;;;10.20;44.20;;;;;;6276967;28;20040;-77
2021/04/13 02:57:39;;;;;;;4.82;2.50;;;10.20;44.40;;;;;;6260314;28;20040;-77
2021/04/13 03:00:47;;;;;;;4.68;2.03;;;10.20;44.50;;;;;;6258925;28;20095;-77
2021/04/13 03:03:49;;;;;;;4.70;2.38;;;10.20;44.50;;;;;;6259559;28;20037;-77
2021/04/13 03:06:52;;;;;;;5.55;2.35;;;10.10;44.70;;;;;;6256590;28;20025;-77
2021/04/13 03:10:01;;;;;;;4.55;2.40;;;10.10;45.00;;;;;;6276533;28;20498;-77
2021/04/13 03:13:08;;;;;;;3.35;2.15;;;10.10;45.10;;;;;;6277408;28;20064;-78
2021/04/13 03:16:11;;;;;;;3.05;1.83;;;10.10;45.00;;;;;;6243407;28;20350;-78
2021/04/13 03:19:16;;;;;;;5.53;2.88;;;10.10;45.10;;;;;;6277890;28;20028;-78
2021/04/13 03:22:19;;;;;;;5.97;2.45;;;10.00;45.10;;;;;;6243294;28;20171;-78
2021/04/13 03:25:23;;;;;;;4.72;2.15;;;10.00;45.30;;;;;;6259481;28;20033;-78
2021/04/13 03:28:32;;;;;;;5.07;2.95;;;10.00;45.40;;;;;;6259746;28;20032;-78
2021/04/13 03:31:36;;;;;;;4.80;1.92;;;10.00;45.40;;;;;;6259583;28;20056;-78
2021/04/13 03:34:41;;;;;;;4.53;2.60;;;9.90;45.30;;;;;;6259299;28;20364;-78
2021/04/13 03:37:44;;;;;;;2.17;1.70;;;10.00;45.40;;;;;;6277436;28;20029;-78
2021/04/13 03:40:50;;;;;;;3.25;1.90;;;9.90;45.20;;;;;;6275862;28;20375;-78
2021/04/13 03:44:01;;;;;;;7.53;3.05;;;9.90;45.10;;;;;;6258864;28;20028;-78
2021/04/13 03:47:07;;;;;;;3.47;2.33;;;9.90;45.10;;;;;;6275748;28;20029;-76
2021/04/13 03:50:14;;;;;;;4.38;2.50;;;9.90;45.10;;;;;;6259048;28;20037;-79
2021/04/13 03:53:16;;;;;;;4.75;2.53;;;9.90;45.20;;;;;;6259341;28;20032;-78
2021/04/13 03:56:21;;;;;;;6.82;2.60;;;9.90;45.30;;;;;;6259197;28;20057;-77
2021/04/13 03:59:26;;;;;;;6.35;2.83;;;9.90;45.50;;;;;;6258745;28;20032;-79
2021/04/13 04:02:27;;;;;;;3.65;2.42;;;9.90;45.60;;;;;;6259287;28;20032;-79
2021/04/13 04:05:44;;;;;;;4.60;2.45;;;9.80;45.50;;;;;;6242283;28;20029;-77
2021/04/13 04:08:50;;;;;;;3.67;2.28;;;9.80;45.40;;;;;;6240075;28;20040;-79
2021/04/13 04:11:51;;;;;;;4.22;2.30;;;9.80;45.60;;;;;;6233865;28;20025;-79
2021/04/13 04:15:04;;;;;;;3.65;2.17;;;9.80;45.70;;;;;;6250385;28;20036;-77
2021/04/13 04:18:22;;;;;;;3.83;2.28;;;9.70;45.70;;;;;;6234285;28;20086;-78
2021/04/13 04:21:36;;;;;;;4.60;2.58;;;9.70;45.80;;;;;;6234575;28;20041;-78
2021/04/13 04:24:40;;;;;;;5.60;2.58;;;9.60;45.90;;;;;;6234785;28;20448;-78
2021/04/13 04:27:43;;;;;;;3.47;2.15;;;9.70;46.00;;;;;;6234183;28;20467;-78
2021/04/13 04:30:44;;;;;;;4.75;2.25;;;9.60;46.10;;;;;;6233855;28;20033;-78
2021/04/13 04:33:45;;;;;;;3.90;2.50;;;9.60;46.10;;;;;;6251950;28;20445;-78
2021/04/13 04:36:55;;;;;;;5.22;2.58;;;9.60;46.20;;;;;;6252329;28;20022;-80
2021/04/13 04:40:40;;;;;;;8.60;2.58;;;9.60;46.30;;;;;;6235061;28;20133;-78
2021/04/13 04:44:01;;;;;;;7.07;3.05;;;9.60;46.00;;;;;;6202149;28;20512;-78
2021/04/13 04:47:32;;;;;;;8.18;2.58;;;9.60;46.10;;;;;;6201317;28;20088;-77
2021/04/13 04:50:32;;;;;;;7.60;2.75;;;9.60;46.30;;;;;;6200242;28;20081;-77
2021/04/13 04:53:35;;;;;;;4.63;2.60;;;9.60;46.20;;;;;;6184070;28;20034;-78
2021/04/13 04:56:36;;;;;;;4.00;2.17;;;9.60;46.10;;;;;;6199889;28;20031;-79
2021/04/13 04:59:38;;;;;;;6.50;2.70;;;9.50;46.10;;;;;;6208762;28;20065;-78
2021/04/13 05:02:39;;;;;;;5.68;2.70;;;9.50;46.70;;;;;;6183835;28;20056;-78
2021/04/13 05:05:40;;;;;;;3.05;2.20;;;9.50;46.30;;;;;;6183669;28;20553;-78
2021/04/13 05:08:41;;;;;;;3.28;2.15;;;9.50;46.20;;;;;;6200176;28;20042;-77
2021/04/13 05:11:42;;;;;;;5.00;3.05;;;9.50;46.10;;;;;;6184065;28;20044;-78
2021/04/13 05:14:43;;;;;;;5.43;2.65;;;9.40;46.10;;;;;;6199753;28;20042;-78
2021/04/13 05:17:44;;;;;;;3.42;2.38;;;9.40;46.30;;;;;;6183975;28;20036;-78
2021/04/13 05:20:46;;;;;;;3.97;2.33;;;9.50;46.50;;;;;;6194726;28;20123;-79
2021/04/13 05:23:47;;;;;;;5.53;2.67;;;9.50;46.60;;;;;;6228290;28;20099;-78
2021/04/13 05:26:49;;;;;;;5.85;2.42;;;9.50;46.50;;;;;;6231540;28;20030;-78
2021/04/13 05:29:49;;;;;;;3.50;2.05;;;9.50;46.50;;;;;;6254550;28;20087;-79
2021/04/13 05:32:51;;;;;;;7.85;3.05;;;9.50;46.30;;;;;;6254877;28;20029;-78
2021/04/13 05:35:53;;;;;;;5.68;2.60;;;9.50;46.30;;;;;;6237250;28;20453;-78
2021/04/13 05:38:54;;;;;;;4.97;2.13;;;9.60;46.40;;;;;;6255130;28;20056;-78
2021/04/13 05:41:58;;;;;;;5.38;2.47;;;9.50;46.30;;;;;;6255041;28;20021;-78
2021/04/13 05:45:00;;;;;;;4.63;2.67;;;9.60;46.20;;;;;;6236975;28;20025;-78
2021/04/13 05:48:17;;;;;;;4.43;2.67;;;9.60;46.20;;;;;;6237381;28;20097;-79
2021/04/13 05:51:18;;;;;;;4.50;2.65;;;9.60;46.00;;;;;;6237234;28;20030;-78
2021/04/13 05:54:19;;;;;;;6.80;2.35;;;9.60;46.00;;;;;;6237776;28;20087;-79
2021/04/13 05:57:27;;;;;;;6.78;2.53;;;9.70;45.90;;;;;;6254876;28;20029;-78
2021/04/13 06:00:29;;;;;;;6.45;2.65;;;9.60;45.80;;;;;;6253361;28;20040;-78
2021/04/13 06:03:31;;;;;;;5.03;2.90;;;9.70;45.80;;;;;;6215987;28;20111;-78
2021/04/13 06:06:32;;;;;;;6.53;3.00;;;9.70;45.70;;;;;;6228563;28;20095;-78
2021/04/13 06:09:33;;;;;;;7.70;2.72;;;9.70;45.30;;;;;;6228613;28;20402;-77
2021/04/13 06:12:35;;;;;;;3.97;2.33;;;9.80;45.40;;;;;;6243011;28;20064;-80
2021/04/13 06:15:36;;;;;;;8.35;3.00;;;9.80;45.60;;;;;;6253825;28;20391;-79
2021/04/13 06:18:40;;;;;;;5.45;2.53;;;9.90;45.80;;;;;;6253319;28;20400;-78
2021/04/13 06:21:42;;;;;;;2.83;2.03;;;9.90;45.70;;;;;;6236466;28;20099;-80
2021/04/13 06:24:43;;;;;;;5.47;2.50;;;10.00;45.90;;;;;;6233234;28;20372;-81
2021/04/13 06:27:44;;;;;;;8.23;3.05;;;10.00;45.70;;;;;;6236356;28;20091;-81
2021/04/13 06:30:46;;;;;;;4.32;2.80;;;10.10;45.50;;;;;;6235924;28;20053;-80
2021/04/13 06:33:47;;;;;;;5.32;3.28;;;10.10;45.40;;;;;;6251964;28;20037;-78
2021/04/13 06:36:48;;;;;;;6.05;3.08;;;10.20;45.40;;;;;;6252369;28;20037;-80
2021/04/13 06:39:49;;;;;;;6.15;3.05;;;10.20;45.40;;;;;;6253310;28;20025;-81
2021/04/13 06:43:08;;;;;;;6.38;3.35;;;10.20;45.60;;;;;;6235789;28;20427;-79
2021/04/13 06:46:35;;;;;;;7.63;2.75;;;10.30;45.70;;;;;;6235870;28;20119;-80
2021/04/13 06:49:47;;;;;;;8.80;3.63;;;10.40;45.50;;;;;;6235706;28;20052;-80
2021/04/13 06:52:51;;;;;;;6.03;3.30;;;10.40;45.30;;;;;;6235495;28;20029;-79
2021/04/13 06:56:07;;;;;;;6.00;3.50;;;10.40;45.20;;;;;;6235771;28;20037;-81
2021/04/13 06:59:35;;;;;;;7.38;3.17;;;10.50;45.40;;;;;;6252599;28;20071;-78
2021/04/13 07:03:02;;;;;;;9.85;2.97;;;10.50;45.40;;;;;;6232282;28;20033;-80
2021/04/13 07:06:16;;;;;;;9.68;4.25;;;10.60;45.30;;;;;;6235598;28;20460;-80
2021/04/13 07:09:36;;;;;;;8.07;3.03;;;10.70;45.30;;;;;;6219098;28;20133;-79
2021/04/13 07:12:50;;;;;;;7.30;3.63;;;10.80;45.00;;;;;;6218404;28;20033;-79
2021/04/13 07:16:25;;;;;;;7.38;3.08;;;10.80;45.00;;;;;;6217599;28;20099;-79
2021/04/13 07:19:40;;;;;;;9.65;3.65;;;10.90;44.90;;;;;;6202395;28;20050;-81
2021/04/13 07:22:58;;;;;;;6.80;3.30;;;11.00;44.90;;;;;;6187163;28;20138;-78
2021/04/13 07:26:22;;;;;;;8.25;4.07;;;11.10;44.80;;;;;;6186001;28;20053;-78
2021/04/13 07:29:35;;;;;;;8.02;3.05;;;11.20;44.60;;;;;;6201749;28;20137;-80
2021/04/13 07:32:37;;;;;;;5.93;3.67;;;11.30;45.10;;;;;;6201524;28;20074;-79
2021/04/13 07:35:39;;;;;;;6.47;3.55;;;11.40;44.30;;;;;;6185633;28;20050;-82
2021/04/13 07:38:45;;;;;;;8.52;3.65;;;11.50;44.10;;;;;;6201660;28;20034;-80
2021/04/13 07:41:51;;;;;;;6.30;3.00;;;11.60;44.20;;;;;;6188271;28;20042;-81
2021/04/13 07:45:15;;;;;;;8.32;3.42;;;11.80;43.80;;;;;;6185801;28;20073;-80
2021/04/13 07:48:19;;;;;;;5.25;3.08;;;11.90;43.20;;;;;;6082126;29;20602;-77
2021/04/13 07:51:55;;;;;;;9.27;3.33;;;11.90;42.90;;;;;;6081293;29;20047;-78
2021/04/13 07:55:31;;;;;;;5.75;3.35;;;12.00;43.20;;;;;;6073425;29;20036;-79
2021/04/13 07:58:49;;;;;;;8.27;3.88;;;12.20;42.70;;;;;;6090048;29;20054;-78
2021/04/13 08:01:50;;;;;;;9.95;3.22;;;12.30;42.80;;;;;;6091770;29;20404;-79
2021/04/13 08:04:53;;;;;;;7.30;3.58;;;12.50;42.70;;;;;;6108166;29;20055;-78
2021/04/13 08:08:48;;;;;;;5.40;3.42;;;12.60;42.40;;;;;;6089477;29;20126;-80
2021/04/13 08:12:13;;;;;;;7.57;3.47;;;12.70;41.80;;;;;;6035426;29;20109;-80
2021/04/13 08:15:20;;;;;;;7.07;3.63;;;12.80;41.50;;;;;;6021598;29;20492;-79
2021/04/13 08:18:47;;;;;;;5.05;3.08;;;12.80;41.50;;;;;;6036494;29;20137;-80
2021/04/13 08:22:15;;;;;;;6.57;2.92;;;12.90;41.20;;;;;;6020464;29;20367;-80
2021/04/13 08:25:44;;;;;;;5.65;2.92;;;13.10;41.00;;;;;;6085024;29;20065;-79
2021/04/13 08:29:03;;;;;;;5.40;2.85;;;13.10;40.90;;;;;;6117964;29;20051;-78
2021/04/13 08:32:57;;;;;;;4.70;2.25;;;13.10;39.70;;;;;;6104759;29;20051;-78
2021/04/13 08:36:22;;;;;;;4.65;2.20;;;13.10;38.60;;;;;;6156486;28;20074;-76
2021/04/13 08:39:43;;;;;;;3.47;2.03;;;13.20;38.50;;;;;;6177421;28;20046;-78
2021/04/13 08:42:54;;;;;;;4.50;2.10;;;13.20;37.70;;;;;;6176728;28;20034;-77
2021/04/13 08:46:16;;;;;;;3.85;2.28;;;13.30;37.90;;;;;;6191796;28;20096;-76
2021/04/13 08:49:36;;;;;;;4.18;2.20;;;13.30;38.00;;;;;;6225770;28;20366;-77
2021/04/13 08:52:43;;;;;;;8.45;2.55;;;13.50;37.80;;;;;;6225300;28;20022;-77
2021/04/13 08:55:48;;;;;;;6.60;2.90;;;13.50;37.10;;;;;;6209052;28;20045;-78
2021/04/13 08:58:53;;;;;;;4.90;2.42;;;13.60;37.50;;;;;;6241484;28;20037;-79
2021/04/13 09:02:26;;;;;;;7.38;3.08;;;13.70;37.30;;;;;;6238702;28;20041;-79
2021/04/13 09:05:31;;;;;;;4.90;2.47;;;13.60;37.10;;;;;;6212593;28;20428;-79
2021/04/13 09:08:32;;;;;;;4.80;2.00;;;13.70;37.10;;;;;;6212676;28;20042;-77
2021/04/13 09:11:54;;;;;;;4.13;2.28;;;13.80;37.30;;;;;;6212782;28;20096;-78
2021/04/13 09:15:01;;;;;;;6.20;2.97;;;14.00;37.70;;;;;;6213024;28;20034;-77
2021/04/13 09:18:13;;;;;;;6.35;2.65;;;14.00;36.60;;;;;;6214110;28;20121;-78
2021/04/13 09:21:32;;;;;;;4.88;2.15;;;14.10;36.90;;;;;;6213237;28;20132;-78
2021/04/13 09:24:40;;;;;;;5.55;2.42;;;14.20;36.20;;;;;;6230037;28;20040;-80
2021/04/13 09:27:46;;;;;;;3.13;1.95;;;14.30;36.00;;;;;;6196616;28;20041;-79
2021/04/13 09:31:09;;;;;;;4.78;2.13;;;14.40;35.90;;;;;;6228608;28;20025;-78
2021/04/13 09:34:22;;;;;;;3.35;1.80;;;14.50;35.80;;;;;;6228080;28;20042;-80
2021/04/13 09:37:28;;;;;;;2.42;1.50;;;14.60;34.90;;;;;;6229280;28;20037;-78
2021/04/13 09:40:51;;;;;;;3.88;1.85;;;14.60;33.50;;;;;;6238158;28;20124;-77
2021/04/13 09:44:18;;;;;;;3.95;1.58;;;14.70;33.10;;;;;;6272620;28;20057;-79
2021/04/13 09:47:47;;;;;;;5.07;1.70;;;14.80;33.60;;;;;;6261465;28;20118;-79
2021/04/13 09:51:14;;;;;;;3.47;1.85;;;14.90;33.30;;;;;;6261074;28;20032;-78
2021/04/13 09:54:26;;;;;;;8.70;4.65;;;15.00;33.00;;;;;;6279054;28;20025;-79
2021/04/13 09:57:49;;;;;;;2.85;1.92;;;15.20;32.90;;;;;;6278733;28;20033;-78
2021/04/13 10:01:10;;;;;;;1.60;1.10;;;15.20;32.20;;;;;;6261627;28;20420;-79
2021/04/13 10:04:29;;;;;;;3.75;1.80;;;15.30;32.30;;;;;;6277469;28;20349;-78
2021/04/13 10:07:43;;;;;;;2.00;1.35;;;15.40;31.60;;;;;;6261578;28;20124;-78
2021/04/13 10:11:07;;;;;;;2.17;1.40;;;15.40;31.10;;;;;;6242395;28;20047;-78
2021/04/13 10:14:20;;;;;;;1.58;1.35;;;15.50;30.70;;;;;;6164018;28;20300;-79
2021/04/13 10:18:14;;;;;;;3.95;1.50;;;15.60;30.30;;;;;;6179249;28;20037;-78
2021/04/13 10:21:36;;;;;;;6.35;1.10;;;15.60;30.60;;;;;;6085773;29;20059;-77
2021/04/13 10:25:12;;;;;;;6.28;1.65;;;15.80;30.00;;;;;;6087250;29;20081;-79
2021/04/13 10:28:12;;;;;;;2.17;1.30;;;15.90;30.00;;;;;;6080253;29;20136;-78
2021/04/13 10:31:32;;;;;;;3.83;1.63;;;16.00;29.60;;;;;;6046296;29;20049;-78
2021/04/13 10:35:03;;;;;;;5.03;1.33;;;16.10;28.90;;;;;;6071492;29;20048;-79
2021/04/13 10:38:25;;;;;;;2.35;1.05;;;16.10;28.40;;;;;;6081899;29;20037;-78
2021/04/13 10:41:57;;;;;;;1.90;1.30;;;16.20;28.30;;;;;;6069075;29;20417;-78
2021/04/13 10:45:17;;;;;;;2.67;1.48;;;16.20;27.80;;;;;;6086374;29;20159;-77
2021/04/13 10:48:54;;;;;;;2.83;1.45;;;16.50;27.50;;;;;;6083502;29;20101;-76
2021/04/13 10:52:08;;;;;;;4.30;1.58;;;16.90;27.00;;;;;;6076136;29;20403;-78
2021/04/13 10:55:12;;;;;;;3.00;1.40;;;17.40;27.10;;;;;;6138702;29;20493;-79
2021/04/13 10:58:34;;;;;;;2.67;1.63;;;17.90;26.70;;;;;;6138974;29;20060;-77
2021/04/13 11:01:44;;;;;;;1.90;1.55;;;18.30;25.90;;;;;;6139367;29;20466;-78
2021/04/13 11:05:23;;;;;;;2.13;1.40;;;18.90;25.80;;;;;;6189443;28;20104;-79
2021/04/13 11:08:52;;;;;;;1.67;1.13;;;19.40;25.30;;;;;;6256496;28;20029;-79
2021/04/13 11:12:48;;;;;;;1.58;1.13;;;19.90;24.30;;;;;;6255319;28;20037;-79
2021/04/13 11:16:46;;;;;;;2.78;1.40;;;20.20;24.00;;;;;;6185801;28;20110;-78
2021/04/13 11:20:00;;;;;;;1.38;1.20;;;20.00;22.70;;;;;;6136754;28;20120;-79
2021/04/13 11:23:16;;;;;;;5.50;1.23;;;19.70;23.30;;;;;;6154762;29;20039;-78
2021/04/13 11:26:36;;;;;;;2.47;1.38;;;19.70;23.50;;;;;;6157040;29;20478;-77
2021/04/13 11:29:58;;;;;;;2.38;1.30;;;19.80;24.00;;;;;;6149795;28;20047;-78
2021/04/13 11:33:11;;;;;;;4.00;1.15;;;19.90;23.90;;;;;;6153406;29;20066;-77
2021/04/13 11:36:30;;;;;;;1.98;1.17;;;19.70;23.60;;;;;;6153272;29;20081;-77
2021/04/13 11:39:41;;;;;;;16.25;6.95;;;19.50;23.60;;;;;;6153050;29;20039;-80
2021/04/13 11:42:43;;;;;;;2.17;1.20;;;19.30;24.10;;;;;;6151076;29;20443;-81
2021/04/13 11:46:15;;;;;;;1.45;1.20;;;19.20;23.50;;;;;;6151683;28;20498;-78
2021/04/13 11:49:27;;;;;;;2.97;1.15;;;19.10;24.10;;;;;;6127288;28;20046;-78
2021/04/13 11:52:28;;;;;;;1.85;1.30;;;19.10;24.00;;;;;;6199129;28;20112;-77
2021/04/13 11:55:29;;;;;;;2.75;1.20;;;19.30;24.00;;;;;;6201281;28;20026;-76
2021/04/13 11:58:33;;;;;;;1.83;1.17;;;19.20;23.40;;;;;;6185226;28;20031;-77
2021/04/13 12:01:36;;;;;;;1.63;1.15;;;19.30;23.80;;;;;;6185156;28;20138;-77
2021/04/13 12:04:50;;;;;;;1.98;1.30;;;19.80;23.60;;;;;;6184707;28;20034;-77
2021/04/13 12:07:51;;;;;;;2.05;1.38;;;20.30;22.80;;;;;;6184469;28;20049;-78
2021/04/13 12:10:55;;;;;;;4.50;1.70;;;20.50;22.50;;;;;;6164755;28;20047;-77
2021/04/13 12:13:56;;;;;;;2.05;1.33;;;20.80;22.10;;;;;;6160154;28;20043;-77
2021/04/13 12:17:00;;;;;;;2.22;1.23;;;21.30;22.00;;;;;;6176242;28;20035;-77
2021/04/13 12:20:41;;;;;;;2.90;1.30;;;21.50;21.50;;;;;;6160499;28;20161;-77
2021/04/13 12:23:46;;;;;;;1.60;1.27;;;21.70;21.50;;;;;;6112513;29;20572;-78
2021/04/13 12:26:47;;;;;;;1.95;1.30;;;22.40;21.40;;;;;;6132492;29;20401;-78
2021/04/13 12:29:48;;;;;;;5.10;1.75;;;23.20;20.40;;;;;;6150240;29;20054;-78
2021/04/13 12:32:49;;;;;;;1.60;1.05;;;23.70;19.30;;;;;;6151478;29;20053;-76
2021/04/13 12:35:50;;;;;;;2.53;1.27;;;23.60;19.40;;;;;;6152292;29;20146;-76
2021/04/13 12:38:52;;;;;;;1.10;1.00;;;23.40;19.20;;;;;;6152308;29;20039;-76
2021/04/13 12:42:01;;;;;;;1.23;1.13;;;23.70;18.80;;;;;;6152321;29;20047;-77
2021/04/13 12:45:16;;;;;;;;;;;24.10;18.50;;;;;;6152481;29;20417;-77
2021/04/13 12:48:22;;;;;;;2.72;1.40;;;24.60;18.60;;;;;;6168310;28;20008;-77
2021/04/13 12:51:31;;;;;;;6.13;1.40;;;24.30;18.50;;;;;;6152011;29;20129;-77
2021/04/13 12:54:37;;;;;;;3.80;1.25;;;23.80;19.10;;;;;;6152450;29;20039;-76
2021/04/13 12:57:55;;;;;;;5.38;1.50;;;24.00;19.20;;;;;;6134553;29;20122;-77
2021/04/13 13:00:57;;;;;;;1.45;1.13;;;25.10;18.60;;;;;;6184596;28;20487;-76
2021/04/13 13:04:07;;;;;;;3.35;1.35;;;24.90;18.30;;;;;;6226565;28;20018;-77
2021/04/13 13:07:30;;;;;;;1.67;1.05;;;24.40;18.40;;;;;;6192746;28;20036;-76
2021/04/13 13:10:32;;;;;;;1.73;1.10;;;24.90;17.80;;;;;;6242381;28;20187;-76
2021/04/13 13:13:40;;;;;;;1.00;0.88;;;25.30;17.60;;;;;;6233722;28;20022;-77
2021/04/13 13:16:43;;;;;;;1.85;1.23;;;25.80;17.50;;;;;;6233690;28;20083;-77
2021/04/13 13:19:49;;;;;;;2.03;1.27;;;26.50;16.80;;;;;;6257088;28;20048;-77
2021/04/13 13:22:52;;;;;;;2.80;1.17;;;27.20;16.20;;;;;;6258253;28;20043;-77
2021/04/13 13:25:53;;;;;;;1.85;1.02;;;26.50;16.20;;;;;;6242076;28;20051;-76
2021/04/13 13:28:53;;;;;;;1.67;1.30;;;26.90;16.00;;;;;;6276022;28;20033;-77
2021/04/13 13:31:54;;;;;;;2.35;1.15;;;27.60;15.10;;;;;;6273881;28;20090;-77
2021/04/13 13:34:59;;;;;;;1.77;1.42;;;28.30;14.70;;;;;;6257640;28;20058;-77
2021/04/13 13:38:01;;;;;;;2.13;1.25;;;29.10;14.60;;;;;;6257487;28;20029;-78
2021/04/13 13:41:03;;;;;;;1.30;1.10;;;29.70;14.00;;;;;;6257171;28;20029;-78
2021/04/13 13:44:23;;;;;;;1.63;1.15;;;30.20;14.50;;;;;;6260003;28;20442;-77
2021/04/13 13:47:30;;;;;;;4.10;1.58;;;30.50;13.90;;;;;;6262331;28;20035;-77
2021/04/13 13:50:38;;;;;;;1.70;1.20;;;30.30;13.60;;;;;;6262842;28;20040;-76
2021/04/13 13:53:50;;;;;;;2.15;1.30;;;29.20;13.90;;;;;;6261994;28;20456;-77
2021/04/13 13:56:53;;;;;;;1.02;0.88;;;27.90;14.80;;;;;;6262336;28;20073;-77
2021/04/13 13:59:53;;;;;;;4.18;1.17;;;26.50;15.40;;;;;;6261808;28;20028;-78
2021/04/13 14:03:09;;;;;;;1.52;1.17;;;25.30;15.90;;;;;;6245292;28;20094;-77
2021/04/13 14:06:10;;;;;;;2.75;1.30;;;24.30;16.70;;;;;;6261800;28;20033;-77
2021/04/13 14:09:17;;;;;;;1.40;1.10;;;23.60;17.30;;;;;;6273324;28;20372;-77
2021/04/13 14:12:32;;;;;;;2.47;1.75;;;23.10;17.70;;;;;;6254498;28;20030;-78
2021/04/13 14:15:38;;;;;;;3.30;1.27;;;22.70;17.90;;;;;;6254262;28;20030;-77
2021/04/13 14:18:51;;;;;;;1.85;1.00;;;22.30;18.30;;;;;;6221492;28;20025;-76
2021/04/13 14:21:54;;;;;;;2.28;1.10;;;21.90;18.50;;;;;;6237421;28;20033;-76
2021/04/13 14:25:04;;;;;;;6.10;1.20;;;21.30;19.00;;;;;;6237800;28;20455;-77
2021/04/13 14:28:18;;;;;;;2.55;1.10;;;20.80;19.40;;;;;;6254851;28;20033;-77
2021/04/13 14:31:21;;;;;;;4.53;1.27;;;20.40;19.60;;;;;;6238509;28;20116;-78
2021/04/13 14:34:25;;;;;;;0.77;0.77;;;20.00;20.00;;;;;;6237999;28;20026;-78
2021/04/13 14:37:40;;;;;;;1.90;1.20;;;19.70;20.40;;;;;;6238713;28;20029;-77
2021/04/13 14:40:44;;;;;;;0.95;0.75;;;19.50;20.50;;;;;;6238707;28;20025;-78
2021/04/13 14:43:45;;;;;;;1.00;0.90;;;19.20;20.50;;;;;;6254136;28;20087;-76
2021/04/13 14:46:46;;;;;;;1.15;0.90;;;19.10;20.80;;;;;;6238719;28;20033;-76
2021/04/13 14:49:49;;;;;;;4.43;0.80;;;19.00;20.80;;;;;;6242618;28;20072;-76
2021/04/13 14:52:52;;;;;;;1.00;0.90;;;18.80;21.00;;;;;;6237311;28;20451;-76
2021/04/13 14:55:53;;;;;;;0.93;0.85;;;18.70;21.00;;;;;;6252915;28;20048;-78
2021/04/13 14:58:54;;;;;;;2.35;0.90;;;18.60;21.10;;;;;;6220500;28;20029;-77
2021/04/13 15:01:56;;;;;;;3.38;0.68;;;18.60;21.80;;;;;;6251427;28;20043;-77
2021/04/13 15:04:57;;;;;;;1.15;0.70;;;18.40;21.20;;;;;;6232210;28;20026;-76
2021/04/13 15:07:59;;;;;;;1.20;0.70;;;18.40;21.40;;;;;;6235641;28;20037;-77
2021/04/13 15:11:02;;;;;;;0.75;0.73;;;18.30;21.40;;;;;;6272813;28;20131;-78
2021/04/13 15:14:03;;;;;;;0.60;0.60;;;18.20;21.40;;;;;;6259768;28;20039;-76
2021/04/13 15:17:06;;;;;;;1.63;0.70;;;18.10;21.50;;;;;;6277511;28;20075;-78
2021/04/13 15:20:08;;;;;;;1.35;0.90;;;18.00;21.50;;;;;;6259869;28;20111;-77
2021/04/13 15:23:11;;;;;;;0.80;0.70;;;17.90;21.50;;;;;;6259772;28;20032;-77
2021/04/13 15:26:12;;;;;;;1.52;0.68;;;18.00;21.60;;;;;;6244229;28;20029;-78
2021/04/13 15:29:13;;;;;;;1.15;0.80;;;18.00;21.60;;;;;;6243851;28;20032;-77
2021/04/13 15:32:14;;;;;;;4.30;1.10;;;18.00;21.70;;;;;;6277532;28;20028;-77
2021/04/13 15:35:32;;;;;;;1.75;0.80;;;18.00;21.70;;;;;;6276584;28;20096;-77
2021/04/13 15:38:34;;;;;;;1.13;0.85;;;18.00;21.70;;;;;;6261989;28;20029;-77
2021/04/13 15:41:40;;;;;;;1.10;0.90;;;18.00;21.70;;;;;;6263087;28;20093;-78
2021/04/13 15:44:47;;;;;;;0.93;0.82;;;18.00;21.60;;;;;;6261006;28;20086;-79
2021/04/13 15:47:48;;;;;;;4.75;0.93;;;18.00;21.60;;;;;;6277013;28;20032;-78
2021/04/13 15:50:51;;;;;;;1.00;0.90;;;18.10;21.70;;;;;;6263453;28;20441;-81
2021/04/13 15:53:53;;;;;;;1.33;1.05;;;18.10;21.50;;;;;;6252312;28;20084;-79
2021/04/13 15:56:56;;;;;;;0.80;0.65;;;18.20;21.50;;;;;;6252973;28;20116;-79
2021/04/13 15:59:57;;;;;;;1.60;1.00;;;18.50;21.30;;;;;;6238585;28;20025;-78
2021/04/13 16:02:58;;;;;;;0.77;0.70;;;19.80;20.40;;;;;;6217617;28;20444;-78
2021/04/13 16:05:59;;;;;;;1.33;0.93;;;21.40;18.80;;;;;;6233316;28;20033;-77
2021/04/13 16:09:01;;;;;;;2.25;1.00;;;23.10;17.80;;;;;;6251183;28;20425;-79
2021/04/13 16:12:01;;;;;;;1.15;0.70;;;24.50;16.50;;;;;;6217838;28;20034;-80
2021/04/13 16:15:03;;;;;;;1.17;0.80;;;25.40;15.50;;;;;;6251138;28;20043;-79
2021/04/13 16:18:04;;;;;;;1.83;1.00;;;26.20;15.20;;;;;;6234253;28;20441;-77
2021/04/13 16:21:07;;;;;;;0.80;0.80;;;26.70;14.70;;;;;;6265670;28;20364;-77
2021/04/13 16:24:09;;;;;;;1.10;1.00;;;27.20;14.40;;;;;;6274779;28;20078;-78
2021/04/13 16:27:11;;;;;;;2.15;0.93;;;27.30;14.00;;;;;;6274943;28;20032;-77
2021/04/13 16:30:12;;;;;;;1.95;1.25;;;26.80;13.90;;;;;;6243003;28;20040;-77